Time;durP1;ratioP1;P1;durP2;ratioP2;P2;SDS_P1;SDS_P2;PMS_P1;PMS_P2;Temp;Humidity;BMP_temperature;BMP_pressure;BME280_temperature;BME280_humidity;BME280_pressure;Samples;Min_cycle;Max_cycle;Signal;HPM_P1;HPM_P2
2023/03/09 00:01:41;;;;;;;15.48;7.45;;;2.10;99.90;;;;;;5029437;28;20064;-80
2023/03/09 00:04:11;;;;;;;17.02;7.05;;;2.40;99.90;;;;;;5013461;28;20494;-80
2023/03/09 00:06:37;;;;;;;17.15;7.35;;;2.10;99.90;;;;;;5029125;28;20108;-81
2023/03/09 00:09:03;;;;;;;17.15;7.20;;;2.20;99.90;;;;;;4996271;28;20121;-80
2023/03/09 00:11:29;;;;;;;17.48;7.05;;;2.10;99.90;;;;;;4996717;28;20500;-80
2023/03/09 00:13:55;;;;;;;15.18;7.28;;;2.10;99.90;;;;;;5013555;28;20048;-81
2023/03/09 00:16:29;;;;;;;15.18;7.43;;;2.70;99.90;;;;;;5012988;28;20021;-81
2023/03/09 00:18:57;;;;;;;14.75;7.20;;;3.30;99.90;;;;;;5013258;28;20029;-80
2023/03/09 00:21:38;;;;;;;13.95;6.82;;;3.70;99.90;;;;;;5013671;28;20136;-80
2023/03/09 00:24:16;;;;;;;12.45;6.28;;;3.40;99.90;;;;;;5012812;28;20076;-80
2023/03/09 00:26:46;;;;;;;12.93;7.18;;;2.10;99.90;;;;;;5009817;28;20042;-81
2023/03/09 00:29:12;;;;;;;15.45;6.57;;;2.10;99.90;;;;;;5013954;28;20451;-81
2023/03/09 00:31:39;;;;;;;14.07;7.03;;;2.20;99.90;;;;;;5032622;28;20033;-81
2023/03/09 00:34:05;;;;;;;13.75;6.70;;;3.30;99.90;;;;;;5016515;28;20041;-81
2023/03/09 00:36:31;;;;;;;15.32;7.10;;;2.10;99.90;;;;;;5016078;28;20067;-81
2023/03/09 00:38:58;;;;;;;12.70;6.53;;;3.40;99.90;;;;;;4999484;28;20044;-81
2023/03/09 00:41:30;;;;;;;15.20;7.05;;;2.10;99.90;;;;;;4999832;28;20469;-81
2023/03/09 00:44:00;;;;;;;16.73;7.53;;;2.10;99.90;;;;;;5000807;28;20037;-81
2023/03/09 00:46:26;;;;;;;16.50;7.53;;;2.40;99.90;;;;;;5032777;28;20042;-81
2023/03/09 00:48:52;;;;;;;;;;;2.70;99.90;;;;;;5033141;28;20520;-81
2023/03/09 00:51:18;;;;;;;15.75;7.00;;;2.70;99.90;;;;;;5016400;28;19921;-81
2023/03/09 00:53:44;;;;;;;15.52;7.03;;;2.00;99.90;;;;;;5015947;28;20033;-81
2023/03/09 00:56:15;;;;;;;19.08;7.25;;;2.00;99.90;;;;;;5015743;28;20102;-81
2023/03/09 00:58:41;;;;;;;16.75;7.95;;;2.00;99.90;;;;;;5032275;28;20452;-81
2023/03/09 01:01:09;;;;;;;17.67;7.47;;;3.40;99.90;;;;;;5016337;28;20172;-81
2023/03/09 01:03:35;;;;;;;16.52;6.95;;;2.40;99.90;;;;;;5032543;28;20042;-81
2023/03/09 01:06:01;;;;;;;16.23;7.47;;;2.00;99.90;;;;;;5000107;28;20042;-81
2023/03/09 01:08:26;;;;;;;14.52;6.97;;;2.20;99.90;;;;;;5032623;28;20064;-81
2023/03/09 01:10:52;;;;;;;14.97;6.93;;;1.90;99.90;;;;;;4980334;28;20049;-81
2023/03/09 01:13:18;;;;;;;15.55;7.03;;;2.80;99.90;;;;;;5032186;28;20276;-82
2023/03/09 01:15:44;;;;;;;17.40;7.90;;;1.80;99.90;;;;;;5032082;28;20041;-80
2023/03/09 01:18:09;;;;;;;17.48;8.20;;;3.30;99.90;;;;;;5016328;28;20116;-80
2023/03/09 01:20:35;;;;;;;15.73;7.25;;;1.80;99.90;;;;;;5015561;28;20045;-80
2023/03/09 01:23:01;;;;;;;18.23;8.10;;;1.80;99.90;;;;;;4999208;28;20076;-81
2023/03/09 01:25:27;;;;;;;15.43;7.63;;;1.80;99.90;;;;;;4999589;28;20041;-80
2023/03/09 01:27:53;;;;;;;17.88;8.70;;;1.80;99.90;;;;;;5015302;28;20146;-80
2023/03/09 01:30:19;;;;;;;17.90;7.10;;;1.80;99.90;;;;;;5015329;28;20559;-80
2023/03/09 01:32:44;;;;;;;20.75;7.78;;;1.70;99.90;;;;;;4998377;28;20041;-80
2023/03/09 01:35:10;;;;;;;17.67;8.02;;;1.70;99.90;;;;;;5015219;28;20029;-79
2023/03/09 01:37:36;;;;;;;18.38;8.23;;;1.60;99.90;;;;;;4998749;28;20038;-79
2023/03/09 01:40:06;;;;;;;18.80;8.15;;;2.50;99.90;;;;;;4998891;28;20045;-79
2023/03/09 01:42:32;;;;;;;17.63;8.57;;;1.60;99.90;;;;;;5045933;28;20034;-80
2023/03/09 01:45:26;;;;;;;15.60;7.90;;;1.60;99.90;;;;;;5031285;28;20067;-80
2023/03/09 01:47:52;;;;;;;17.83;7.82;;;1.60;99.90;;;;;;5028885;28;20115;-80
2023/03/09 01:50:28;;;;;;;14.95;7.75;;;1.50;99.90;;;;;;5031728;28;20397;-80
2023/03/09 01:52:56;;;;;;;17.77;7.82;;;1.50;99.90;;;;;;5031360;28;20033;-79
2023/03/09 01:55:29;;;;;;;14.10;6.85;;;2.00;99.90;;;;;;5014730;28;20053;-80
2023/03/09 01:58:02;;;;;;;13.15;6.78;;;1.70;99.90;;;;;;5014735;28;20060;-80
2023/03/09 02:00:29;;;;;;;17.55;8.20;;;1.50;99.90;;;;;;5031537;28;20083;-80
2023/03/09 02:03:08;;;;;;;15.30;7.65;;;1.50;99.90;;;;;;5015128;28;20128;-80
2023/03/09 02:05:49;;;;;;;15.05;7.65;;;1.50;99.90;;;;;;5015003;28;20042;-81
2023/03/09 02:08:15;;;;;;;15.60;7.60;;;1.50;99.90;;;;;;5014919;28;20033;-81
2023/03/09 02:11:03;;;;;;;15.45;7.07;;;1.50;99.90;;;;;;5030970;28;20033;-81
2023/03/09 02:13:33;;;;;;;17.20;8.10;;;1.40;99.90;;;;;;5014820;28;20503;-81
2023/03/09 02:15:59;;;;;;;14.15;6.93;;;2.00;99.90;;;;;;5031393;28;20038;-81
2023/03/09 02:18:25;;;;;;;16.98;7.32;;;1.40;99.90;;;;;;4998743;28;20394;-81
2023/03/09 02:21:00;;;;;;;16.33;7.00;;;1.40;99.90;;;;;;5014989;28;20466;-81
2023/03/09 02:23:44;;;;;;;13.50;6.85;;;2.70;99.90;;;;;;5031418;28;20095;-81
2023/03/09 02:26:23;;;;;;;17.10;7.07;;;1.40;99.90;;;;;;5030819;28;20037;-81
2023/03/09 02:28:49;;;;;;;14.85;6.90;;;1.30;99.90;;;;;;5031188;28;20417;-81
2023/03/09 02:31:16;;;;;;;14.75;6.43;;;1.80;99.90;;;;;;5014453;28;20099;-81
2023/03/09 02:33:42;;;;;;;;;;;2.10;99.90;;;;;;5012304;28;20045;-81
2023/03/09 02:36:08;;;;;;;14.85;7.15;;;1.30;99.90;;;;;;5014198;28;19924;-81
2023/03/09 02:38:34;;;;;;;16.23;6.95;;;1.30;99.90;;;;;;4998333;28;20037;-81
2023/03/09 02:41:02;;;;;;;15.68;7.65;;;1.30;99.90;;;;;;5030488;28;20413;-81
2023/03/09 02:43:36;;;;;;;15.52;8.63;;;2.00;99.90;;;;;;5014641;28;20080;-81
2023/03/09 02:46:02;;;;;;;16.90;7.68;;;2.10;99.90;;;;;;5029044;28;20071;-81
2023/03/09 02:48:28;;;;;;;16.92;7.45;;;1.50;99.90;;;;;;5030668;28;20037;-81
2023/03/09 02:50:54;;;;;;;16.98;7.68;;;2.10;99.90;;;;;;5013642;28;20072;-81
2023/03/09 02:53:20;;;;;;;17.13;8.07;;;1.30;99.90;;;;;;5029881;28;20041;-81
2023/03/09 02:55:46;;;;;;;20.27;9.18;;;2.10;99.90;;;;;;5013785;28;20042;-81
2023/03/09 02:58:11;;;;;;;18.20;8.05;;;1.50;99.90;;;;;;5013716;28;20057;-81
2023/03/09 03:00:37;;;;;;;18.38;8.52;;;1.40;99.90;;;;;;5013980;28;20071;-81
2023/03/09 03:03:03;;;;;;;19.17;8.70;;;1.40;99.90;;;;;;5013954;28;20105;-81
2023/03/09 03:05:29;;;;;;;18.13;8.38;;;3.00;99.90;;;;;;5014198;28;20120;-81
2023/03/09 03:07:55;;;;;;;15.75;7.68;;;1.40;99.90;;;;;;4997481;28;20029;-81
2023/03/09 03:10:20;;;;;;;19.37;8.00;;;1.40;99.90;;;;;;4997674;28;20401;-81
2023/03/09 03:12:46;;;;;;;19.57;8.13;;;1.40;99.90;;;;;;4997350;28;20284;-81
2023/03/09 03:15:12;;;;;;;17.90;7.93;;;1.40;99.90;;;;;;5012980;28;20038;-81
2023/03/09 03:17:38;;;;;;;18.38;8.52;;;2.60;99.90;;;;;;5013746;28;20386;-81
2023/03/09 03:20:05;;;;;;;17.15;8.43;;;2.50;99.90;;;;;;5013194;28;20041;-81
2023/03/09 03:22:31;;;;;;;17.75;8.60;;;1.40;99.90;;;;;;5013941;28;20444;-81
2023/03/09 03:24:57;;;;;;;22.60;9.35;;;1.40;99.90;;;;;;5029859;28;20041;-79
2023/03/09 03:27:22;;;;;;;21.67;8.50;;;2.60;99.90;;;;;;4997942;28;20042;-81
2023/03/09 03:29:52;;;;;;;18.45;9.02;;;1.90;99.90;;;;;;4995180;28;20117;-81
2023/03/09 03:32:17;;;;;;;21.10;9.73;;;1.30;99.90;;;;;;5031840;28;20088;-81
2023/03/09 03:34:43;;;;;;;22.05;9.18;;;2.00;99.90;;;;;;5013713;28;20091;-81
2023/03/09 03:37:09;;;;;;;21.75;9.35;;;1.30;99.90;;;;;;4997563;28;20073;-80
2023/03/09 03:39:34;;;;;;;21.17;9.43;;;2.30;99.90;;;;;;5014115;28;20036;-81
2023/03/09 03:42:00;;;;;;;20.92;9.40;;;1.50;99.90;;;;;;4997302;28;20452;-81
2023/03/09 03:44:26;;;;;;;22.02;8.85;;;2.00;99.90;;;;;;5013407;28;20539;-81
2023/03/09 03:46:52;;;;;;;22.75;9.40;;;1.40;99.90;;;;;;5013836;28;20125;-80
2023/03/09 03:49:17;;;;;;;21.15;9.30;;;1.70;99.90;;;;;;5030218;28;20112;-81
2023/03/09 03:51:43;;;;;;;23.33;9.77;;;1.30;99.90;;;;;;4996776;28;20127;-81
2023/03/09 03:54:09;;;;;;;22.25;9.27;;;1.50;99.90;;;;;;5029693;28;20060;-81
2023/03/09 03:56:34;;;;;;;23.40;10.43;;;1.30;99.90;;;;;;5013707;28;20041;-81
2023/03/09 03:59:00;;;;;;;21.70;9.13;;;1.40;99.90;;;;;;4996776;28;20087;-81
2023/03/09 04:01:26;;;;;;;25.33;10.93;;;2.20;99.90;;;;;;4996919;28;20490;-81
2023/03/09 04:03:51;;;;;;;23.30;9.87;;;1.30;99.90;;;;;;5012720;28;20288;-81
2023/03/09 04:06:17;;;;;;;22.65;9.65;;;1.00;99.90;;;;;;5017731;28;20060;-81
2023/03/09 04:08:43;;;;;;;23.85;10.43;;;1.30;99.90;;;;;;4983267;28;20425;-81
2023/03/09 04:11:10;;;;;;;27.20;10.35;;;3.10;99.90;;;;;;5033740;28;20038;-81
2023/03/09 04:13:35;;;;;;;25.80;10.25;;;1.60;99.90;;;;;;5017171;28;20042;-81
2023/03/09 04:16:01;;;;;;;26.60;11.00;;;1.30;99.90;;;;;;5016856;28;20083;-81
2023/03/09 04:18:27;;;;;;;23.05;10.65;;;1.30;99.90;;;;;;5017080;28;20029;-80
2023/03/09 04:20:53;;;;;;;22.15;10.32;;;1.30;99.90;;;;;;5033560;28;20087;-80
2023/03/09 04:23:19;;;;;;;26.33;9.60;;;2.20;99.90;;;;;;5000535;28;20033;-80
2023/03/09 04:25:54;;;;;;;23.02;10.30;;;1.40;99.90;;;;;;5017031;28;20079;-80
2023/03/09 04:28:20;;;;;;;25.70;11.07;;;1.70;99.90;;;;;;5014760;28;20041;-81
2023/03/09 04:30:45;;;;;;;26.90;11.15;;;1.30;99.90;;;;;;5000728;28;20044;-80
2023/03/09 04:33:11;;;;;;;27.63;11.97;;;1.70;99.90;;;;;;5016646;28;20034;-81
2023/03/09 04:35:37;;;;;;;23.95;10.65;;;1.30;99.90;;;;;;5000550;28;20287;-81
2023/03/09 04:38:03;;;;;;;27.83;10.95;;;1.30;99.90;;;;;;5033479;28;20049;-80
2023/03/09 04:40:29;;;;;;;25.35;10.60;;;2.10;99.90;;;;;;5016710;28;20604;-81
2023/03/09 04:42:55;;;;;;;25.05;10.60;;;1.30;99.90;;;;;;5000413;28;20383;-81
2023/03/09 04:45:20;;;;;;;26.85;10.75;;;1.90;99.90;;;;;;5030894;28;20168;-80
2023/03/09 04:47:46;;;;;;;28.63;11.43;;;1.30;99.90;;;;;;5000211;28;20079;-81
2023/03/09 04:50:12;;;;;;;26.83;10.95;;;2.50;99.90;;;;;;5032785;28;20045;-81
2023/03/09 04:52:38;;;;;;;23.60;10.90;;;1.80;99.90;;;;;;5016326;28;20030;-80
2023/03/09 04:55:04;;;;;;;27.00;11.17;;;2.90;99.90;;;;;;4983061;28;20029;-81
2023/03/09 04:57:29;;;;;;;21.98;9.68;;;1.20;99.90;;;;;;5016449;28;20292;-81
2023/03/09 04:59:56;;;;;;;25.50;10.27;;;2.90;99.90;;;;;;4999804;28;20043;-81
2023/03/09 05:02:21;;;;;;;23.50;9.75;;;1.20;99.90;;;;;;5000390;28;20037;-81
2023/03/09 05:04:48;;;;;;;22.60;10.20;;;1.20;99.90;;;;;;5016748;28;20046;-81
2023/03/09 05:07:13;;;;;;;21.90;8.73;;;1.20;99.90;;;;;;5015962;28;20468;-81
2023/03/09 05:09:39;;;;;;;23.05;10.23;;;1.20;99.90;;;;;;4999687;28;20033;-80
2023/03/09 05:12:05;;;;;;;24.27;10.13;;;1.20;99.90;;;;;;5015735;28;20041;-81
2023/03/09 05:14:31;;;;;;;23.80;9.80;;;1.20;99.90;;;;;;5015793;28;20026;-80
2023/03/09 05:16:57;;;;;;;22.25;10.20;;;1.20;99.90;;;;;;5031258;28;20041;-85
2023/03/09 05:19:22;;;;;;;23.80;10.18;;;1.20;99.90;;;;;;5016132;28;20041;-81
2023/03/09 05:21:48;;;;;;;21.70;9.93;;;1.20;99.90;;;;;;4999599;28;20049;-82
2023/03/09 05:24:14;;;;;;;23.13;10.40;;;1.20;99.90;;;;;;5032080;28;20535;-82
2023/03/09 05:26:40;;;;;;;24.88;10.48;;;3.00;99.90;;;;;;4982855;28;20299;-82
2023/03/09 05:29:05;;;;;;;23.08;10.80;;;1.20;99.90;;;;;;5032123;28;20026;-82
2023/03/09 05:31:31;;;;;;;18.83;9.00;;;1.20;99.90;;;;;;4999224;28;20096;-80
2023/03/09 05:33:57;;;;;;;22.43;9.97;;;1.20;99.90;;;;;;5015567;28;20113;-81
2023/03/09 05:36:25;;;;;;;21.50;9.73;;;1.20;99.90;;;;;;5015598;28;20304;-81
2023/03/09 05:38:51;;;;;;;23.48;11.43;;;1.30;99.90;;;;;;5032138;28;20047;-82
2023/03/09 05:41:18;;;;;;;24.83;10.85;;;1.10;99.90;;;;;;5015405;28;20073;-82
2023/03/09 05:43:44;;;;;;;22.80;11.00;;;1.10;99.90;;;;;;5014847;28;20045;-81
2023/03/09 05:46:12;;;;;;;26.27;10.75;;;1.50;99.90;;;;;;5031893;28;20106;-80
2023/03/09 05:48:39;;;;;;;20.90;10.50;;;1.70;99.90;;;;;;5032214;28;20080;-81
2023/03/09 05:51:07;;;;;;;22.75;11.05;;;1.20;99.90;;;;;;5015332;28;20041;-81
2023/03/09 05:53:34;;;;;;;22.85;10.68;;;1.10;99.90;;;;;;5015149;28;20036;-81
2023/03/09 05:56:00;;;;;;;22.13;11.00;;;1.10;99.90;;;;;;5031463;28;20504;-81
2023/03/09 05:58:25;;;;;;;22.88;10.38;;;1.10;99.90;;;;;;4998944;28;20038;-81
2023/03/09 06:00:54;;;;;;;20.92;9.85;;;2.30;99.90;;;;;;5015115;28;20656;-81
2023/03/09 06:03:20;;;;;;;22.38;10.85;;;1.20;99.90;;;;;;5031754;28;20501;-81
2023/03/09 06:05:46;;;;;;;22.48;10.73;;;1.20;99.90;;;;;;5031944;28;20072;-82
2023/03/09 06:08:12;;;;;;;23.45;10.70;;;1.20;99.90;;;;;;5030357;28;20040;-82
2023/03/09 06:10:38;;;;;;;20.00;10.15;;;1.10;99.90;;;;;;5030794;28;20103;-82
2023/03/09 06:13:04;;;;;;;23.73;10.07;;;1.50;99.90;;;;;;5014775;28;20045;-80
2023/03/09 06:15:30;;;;;;;22.90;9.77;;;1.40;99.90;;;;;;5015225;28;20037;-80
2023/03/09 06:17:55;;;;;;;21.52;10.52;;;1.20;99.90;;;;;;5031787;28;20043;-80
2023/03/09 06:20:21;;;;;;;21.17;9.88;;;1.20;99.90;;;;;;4998595;28;20045;-80
2023/03/09 06:22:47;;;;;;;22.30;10.07;;;1.20;99.90;;;;;;5031334;28;20067;-80
2023/03/09 06:25:13;;;;;;;25.90;10.77;;;1.80;99.90;;;;;;5031081;28;20033;-80
2023/03/09 06:27:39;;;;;;;19.23;9.77;;;1.20;99.90;;;;;;5015158;28;20438;-80
2023/03/09 06:30:05;;;;;;;24.02;9.65;;;1.60;99.90;;;;;;5014252;28;20037;-80
2023/03/09 06:32:32;;;;;;;23.52;10.75;;;1.20;99.90;;;;;;4998585;28;20037;-80
2023/03/09 06:34:58;;;;;;;18.92;9.60;;;1.60;99.90;;;;;;5030920;28;20042;-80
2023/03/09 06:37:24;;;;;;;21.83;10.32;;;2.90;99.90;;;;;;5014857;28;20512;-83
2023/03/09 06:39:50;;;;;;;21.02;10.23;;;2.70;99.90;;;;;;5014599;28;20030;-81
2023/03/09 06:42:15;;;;;;;21.00;9.93;;;2.00;99.90;;;;;;4997894;28;20033;-81
2023/03/09 06:44:42;;;;;;;17.63;9.45;;;1.30;99.90;;;;;;5031404;28;20287;-81
2023/03/09 06:47:09;;;;;;;23.17;10.93;;;1.30;99.90;;;;;;4998492;28;20116;-80
2023/03/09 06:49:35;;;;;;;22.27;10.18;;;1.30;99.90;;;;;;5031411;28;20064;-81
2023/03/09 06:52:01;;;;;;;21.23;10.13;;;1.30;99.90;;;;;;4996614;28;20046;-81
2023/03/09 06:54:27;;;;;;;20.50;9.68;;;2.60;99.90;;;;;;5014203;28;20493;-81
2023/03/09 06:56:53;;;;;;;21.15;10.07;;;2.40;99.90;;;;;;5030475;28;20071;-81
2023/03/09 06:59:18;;;;;;;18.42;9.75;;;1.30;99.90;;;;;;5013668;28;20395;-81
2023/03/09 07:01:44;;;;;;;21.08;9.93;;;1.30;99.90;;;;;;5013844;28;20044;-81
2023/03/09 07:04:10;;;;;;;18.27;9.35;;;1.30;99.90;;;;;;5014594;28;20047;-82
2023/03/09 07:06:36;;;;;;;18.00;9.57;;;1.90;99.90;;;;;;5031411;28;20041;-82
2023/03/09 07:09:02;;;;;;;21.10;9.63;;;1.40;99.90;;;;;;5030994;28;20286;-81
2023/03/09 07:11:27;;;;;;;20.10;10.00;;;2.40;99.90;;;;;;4997485;28;20304;-82
2023/03/09 07:13:53;;;;;;;20.77;10.97;;;1.40;99.90;;;;;;5014202;28;20029;-82
2023/03/09 07:16:19;;;;;;;18.83;9.40;;;1.40;99.90;;;;;;5013957;28;20366;-81
2023/03/09 07:18:45;;;;;;;23.43;10.40;;;2.40;99.90;;;;;;5030602;28;20071;-82
2023/03/09 07:21:11;;;;;;;19.42;9.13;;;1.70;99.90;;;;;;5014468;28;20289;-81
2023/03/09 07:23:37;;;;;;;24.52;10.35;;;1.60;99.90;;;;;;5030223;28;20038;-82
2023/03/09 07:26:04;;;;;;;22.10;9.53;;;1.90;99.90;;;;;;5014274;28;20126;-81
2023/03/09 07:28:31;;;;;;;20.50;9.18;;;1.90;99.90;;;;;;5013853;28;20295;-82
2023/03/09 07:30:56;;;;;;;19.42;9.48;;;3.00;99.90;;;;;;5030302;28;20041;-82
2023/03/09 07:33:22;;;;;;;21.13;9.20;;;2.30;99.90;;;;;;5014029;28;20041;-82
2023/03/09 07:35:48;;;;;;;18.55;8.43;;;2.30;99.90;;;;;;5030584;28;20034;-82
2023/03/09 07:38:14;;;;;;;16.93;8.57;;;2.40;99.90;;;;;;5014037;28;20106;-81
2023/03/09 07:40:39;;;;;;;16.85;7.75;;;2.40;99.90;;;;;;5003951;28;20044;-82
2023/03/09 07:43:06;;;;;;;19.25;9.07;;;2.50;99.90;;;;;;5037431;28;20037;-81
2023/03/09 07:45:31;;;;;;;16.52;9.00;;;2.60;99.90;;;;;;5037119;28;20045;-82
2023/03/09 07:47:57;;;;;;;14.73;7.53;;;2.20;99.90;;;;;;5004410;28;20497;-82
2023/03/09 07:50:24;;;;;;;18.35;8.82;;;3.40;99.90;;;;;;5020291;28;20064;-82
2023/03/09 07:52:49;;;;;;;16.95;8.48;;;3.20;99.90;;;;;;5037390;28;20425;-81
2023/03/09 07:55:15;;;;;;;20.73;9.02;;;2.40;99.90;;;;;;5020410;28;20029;-82
2023/03/09 07:57:43;;;;;;;16.85;8.75;;;2.40;99.90;;;;;;5019980;28;20128;-82
2023/03/09 08:00:12;;;;;;;16.02;7.93;;;2.50;99.90;;;;;;5020112;28;20044;-82
2023/03/09 08:02:40;;;;;;;16.10;8.02;;;2.80;99.90;;;;;;5036999;28;20037;-82
2023/03/09 08:05:10;;;;;;;13.80;7.47;;;3.20;99.90;;;;;;5020772;28;20614;-82
2023/03/09 08:07:35;;;;;;;17.45;7.80;;;3.50;99.90;;;;;;5036736;28;20033;-82
2023/03/09 08:10:02;;;;;;;13.18;7.15;;;3.80;99.90;;;;;;5020519;28;20101;-82
2023/03/09 08:12:28;;;;;;;15.13;7.70;;;4.20;99.90;;;;;;5019938;28;20037;-82
2023/03/09 08:14:54;;;;;;;17.60;8.30;;;3.80;99.90;;;;;;5070409;28;20052;-82
2023/03/09 08:17:19;;;;;;;13.93;6.83;;;4.20;99.90;;;;;;5018849;28;20280;-82
2023/03/09 08:19:45;;;;;;;17.40;8.25;;;4.00;99.90;;;;;;5036710;28;20041;-82
2023/03/09 08:22:11;;;;;;;14.05;7.63;;;4.10;99.90;;;;;;5003395;28;20037;-82
2023/03/09 08:24:37;;;;;;;13.73;6.82;;;4.10;99.90;;;;;;5003969;28;20061;-82
2023/03/09 08:27:03;;;;;;;12.45;6.88;;;4.10;99.90;;;;;;5020472;28;20045;-82
2023/03/09 08:29:29;;;;;;;11.35;6.55;;;4.30;99.90;;;;;;5001695;28;20111;-82
2023/03/09 08:31:54;;;;;;;12.27;7.13;;;4.50;99.90;;;;;;5004150;28;20498;-82
2023/03/09 08:34:20;;;;;;;13.27;7.43;;;4.50;99.90;;;;;;5036575;28;20037;-82
2023/03/09 08:36:46;;;;;;;14.50;7.20;;;4.50;99.90;;;;;;5037359;28;20295;-82
2023/03/09 08:39:12;;;;;;;14.45;6.47;;;4.70;99.90;;;;;;5000824;28;20048;-81
2023/03/09 08:41:38;;;;;;;10.93;6.03;;;5.00;99.90;;;;;;5019930;28;20041;-81
2023/03/09 08:44:04;;;;;;;12.18;6.40;;;5.20;99.90;;;;;;5036224;28;20186;-82
2023/03/09 08:46:30;;;;;;;12.32;6.22;;;5.50;99.90;;;;;;5020350;28;20132;-83
2023/03/09 08:48:56;;;;;;;9.93;5.88;;;5.80;99.90;;;;;;4984501;28;20049;-83
2023/03/09 08:51:22;;;;;;;11.98;6.28;;;5.90;99.90;;;;;;5017157;28;20034;-83
2023/03/09 08:53:48;;;;;;;11.50;5.72;;;6.10;99.90;;;;;;5001092;28;20092;-82
2023/03/09 08:56:14;;;;;;;9.88;6.00;;;6.00;99.90;;;;;;5032911;28;20394;-81
2023/03/09 08:58:40;;;;;;;9.63;5.50;;;6.20;99.90;;;;;;5000686;28;20045;-82
2023/03/09 09:01:08;;;;;;;8.00;5.10;;;6.10;99.90;;;;;;5000735;28;20543;-82
2023/03/09 09:03:35;;;;;;;10.02;5.95;;;6.00;99.90;;;;;;5016343;28;20073;-83
2023/03/09 09:06:13;;;;;;;11.48;5.57;;;6.00;99.90;;;;;;5016518;28;20091;-82
2023/03/09 09:08:41;;;;;;;9.85;5.95;;;6.20;99.90;;;;;;5014210;28;20041;-81
2023/03/09 09:11:13;;;;;;;9.80;5.72;;;6.20;99.90;;;;;;5015825;28;20045;-81
2023/03/09 09:13:39;;;;;;;10.40;5.97;;;6.30;99.90;;;;;;5032248;28;20045;-82
2023/03/09 09:16:10;;;;;;;10.52;5.45;;;6.50;99.90;;;;;;5032982;28;20037;-82
2023/03/09 09:18:36;;;;;;;11.82;5.97;;;6.50;99.90;;;;;;5032497;28;20041;-82
2023/03/09 09:21:14;;;;;;;9.45;5.60;;;6.50;99.90;;;;;;5032988;28;20509;-82
2023/03/09 09:23:41;;;;;;;11.27;5.25;;;6.40;99.90;;;;;;5032984;28;20076;-82
2023/03/09 09:26:07;;;;;;;8.18;5.28;;;6.40;99.90;;;;;;5014925;28;20497;-83
2023/03/09 09:28:34;;;;;;;8.52;4.95;;;6.40;99.90;;;;;;5032573;28;20151;-83
2023/03/09 09:31:03;;;;;;;8.93;5.03;;;6.10;99.90;;;;;;5032674;28;20106;-83
2023/03/09 09:33:31;;;;;;;10.15;5.32;;;5.70;99.90;;;;;;5011230;28;20129;-83
2023/03/09 09:36:11;;;;;;;10.80;5.63;;;5.60;99.90;;;;;;5015953;28;20040;-83
2023/03/09 09:38:37;;;;;;;8.88;5.30;;;5.60;99.90;;;;;;5031950;28;20044;-83
2023/03/09 09:41:33;;;;;;;9.20;5.18;;;5.70;99.90;;;;;;5032568;28;20037;-82
2023/03/09 09:44:03;;;;;;;13.18;7.25;;;5.60;99.90;;;;;;5032630;28;20072;-83
2023/03/09 09:46:29;;;;;;;9.35;5.65;;;5.30;99.90;;;;;;5015708;28;20073;-83
2023/03/09 09:48:56;;;;;;;9.05;4.82;;;5.20;99.90;;;;;;5032652;28;20054;-83
2023/03/09 09:51:40;;;;;;;;;;;5.30;99.90;;;;;;5015582;28;20037;-82
2023/03/09 09:54:22;;;;;;;10.23;5.80;;;5.30;99.90;;;;;;5015042;28;19921;-82
2023/03/09 09:56:56;;;;;;;10.02;5.57;;;5.70;99.90;;;;;;5013347;28;20760;-82
2023/03/09 09:59:41;;;;;;;9.27;5.47;;;6.20;99.90;;;;;;5031590;28;20518;-82
2023/03/09 10:02:10;;;;;;;8.68;5.25;;;6.80;99.90;;;;;;5015210;28;20492;-82
2023/03/09 10:04:46;;;;;;;8.15;4.97;;;7.80;99.90;;;;;;5015227;28;20043;-82
2023/03/09 10:07:18;;;;;;;8.45;4.78;;;8.60;99.90;;;;;;5011665;28;20437;-82
2023/03/09 10:09:47;;;;;;;8.52;4.43;;;8.60;99.90;;;;;;5015664;28;20037;-82
2023/03/09 10:12:19;;;;;;;7.15;4.60;;;8.20;99.90;;;;;;5015588;28;20126;-82
2023/03/09 10:14:49;;;;;;;7.60;4.68;;;7.60;99.90;;;;;;5014775;28;20038;-83
2023/03/09 10:17:48;;;;;;;7.50;4.70;;;7.20;99.90;;;;;;5013228;28;20504;-83
2023/03/09 10:20:34;;;;;;;9.15;5.20;;;6.80;99.90;;;;;;5012396;28;20073;-82
2023/03/09 10:23:18;;;;;;;7.33;4.67;;;6.70;99.90;;;;;;5027281;28;20512;-83
2023/03/09 10:25:45;;;;;;;6.97;4.22;;;6.60;99.90;;;;;;5029393;28;20033;-82
2023/03/09 10:28:17;;;;;;;8.63;5.22;;;6.30;99.90;;;;;;5015977;28;20036;-82
2023/03/09 10:31:04;;;;;;;9.68;4.97;;;6.50;99.90;;;;;;5015107;28;20037;-83
2023/03/09 10:33:29;;;;;;;7.33;4.23;;;6.30;99.90;;;;;;5013963;28;20064;-83
2023/03/09 10:36:03;;;;;;;8.00;4.57;;;6.40;99.90;;;;;;5014562;28;20065;-83
2023/03/09 10:38:29;;;;;;;6.97;4.38;;;6.30;99.90;;;;;;5014528;28;20038;-82
2023/03/09 10:40:57;;;;;;;7.88;3.95;;;6.30;99.90;;;;;;5015138;28;20041;-83
2023/03/09 10:43:29;;;;;;;8.82;4.60;;;6.30;99.90;;;;;;5030201;28;20083;-82
2023/03/09 10:46:13;;;;;;;7.88;4.28;;;6.30;99.90;;;;;;5030477;28;20140;-82
2023/03/09 10:48:39;;;;;;;7.97;3.85;;;6.30;99.90;;;;;;5024682;28;20055;-82
2023/03/09 10:51:19;;;;;;;5.47;3.42;;;6.30;99.90;;;;;;5031230;28;20079;-82
2023/03/09 10:53:46;;;;;;;6.38;3.85;;;6.20;99.90;;;;;;5014768;28;20053;-82
2023/03/09 10:56:18;;;;;;;6.70;4.22;;;6.20;99.90;;;;;;5014463;28;20049;-82
2023/03/09 10:58:44;;;;;;;6.72;3.75;;;6.00;99.90;;;;;;5013839;28;20042;-82
2023/03/09 11:01:12;;;;;;;7.38;4.00;;;6.10;99.90;;;;;;4982198;28;20056;-82
2023/03/09 11:03:41;;;;;;;7.13;4.32;;;6.00;99.90;;;;;;5012312;28;20091;-82
2023/03/09 11:06:13;;;;;;;5.50;3.33;;;6.00;99.90;;;;;;5014511;28;20037;-82
2023/03/09 11:08:41;;;;;;;6.07;3.30;;;6.20;99.90;;;;;;5026001;28;20037;-82
2023/03/09 11:11:16;;;;;;;7.40;3.30;;;6.00;99.90;;;;;;5015296;28;20397;-85
2023/03/09 11:13:46;;;;;;;6.35;3.75;;;6.00;99.90;;;;;;5030062;28;20085;-82
2023/03/09 11:16:24;;;;;;;7.53;4.05;;;6.30;99.90;;;;;;4999027;28;20389;-83
2023/03/09 11:19:11;;;;;;;7.65;3.85;;;5.80;99.90;;;;;;5030859;28;20478;-83
2023/03/09 11:21:38;;;;;;;6.85;3.90;;;5.80;99.90;;;;;;5027889;28;20063;-83
2023/03/09 11:24:08;;;;;;;6.82;4.20;;;5.80;99.90;;;;;;5014191;28;20079;-82
2023/03/09 11:26:45;;;;;;;7.45;4.30;;;5.60;99.90;;;;;;5030263;28;20490;-82
2023/03/09 11:29:10;;;;;;;;;;;5.60;99.90;;;;;;5029814;28;20128;-82
2023/03/09 11:31:39;;;;;;;8.98;4.63;;;5.80;99.90;;;;;;5013896;28;20000;-82
2023/03/09 11:34:15;;;;;;;6.50;3.97;;;5.90;99.90;;;;;;5028373;28;20037;-82
2023/03/09 11:36:55;;;;;;;7.32;4.50;;;5.90;99.90;;;;;;5013604;28;20043;-82
2023/03/09 11:39:29;;;;;;;6.47;4.00;;;6.10;99.90;;;;;;5025850;28;20042;-82
2023/03/09 11:41:57;;;;;;;5.63;3.60;;;6.10;99.90;;;;;;5013597;28;20120;-82
2023/03/09 11:44:31;;;;;;;7.50;3.70;;;6.10;99.90;;;;;;5011059;28;20033;-82
2023/03/09 11:47:18;;;;;;;7.30;3.72;;;6.30;99.90;;;;;;5013927;28;20052;-82
2023/03/09 11:49:47;;;;;;;6.13;3.88;;;6.40;99.90;;;;;;5028273;28;20045;-83
2023/03/09 11:52:22;;;;;;;6.80;4.15;;;6.30;99.90;;;;;;5030489;28;20484;-82
2023/03/09 11:54:51;;;;;;;10.35;4.70;;;6.40;99.90;;;;;;5012677;28;20425;-83
2023/03/09 11:57:20;;;;;;;8.02;3.88;;;6.30;99.90;;;;;;5014652;28;20042;-83
2023/03/09 11:59:57;;;;;;;6.03;3.67;;;6.30;99.90;;;;;;5031163;28;20524;-83
2023/03/09 12:02:27;;;;;;;;;;;6.20;99.90;;;;;;5031623;28;20037;-83
2023/03/09 12:04:53;;;;;;;6.15;3.90;;;6.30;99.90;;;;;;5015267;28;20393;-82
2023/03/09 12:07:34;;;;;;;10.82;4.10;;;6.40;99.90;;;;;;5030499;28;20037;-82
2023/03/09 12:10:18;;;;;;;4.78;2.88;;;6.40;99.90;;;;;;5030687;28;20397;-82
2023/03/09 12:13:33;;;;;;;6.93;3.75;;;6.50;99.90;;;;;;5009082;28;20049;-82
2023/03/09 12:16:04;;;;;;;6.57;3.70;;;6.60;99.90;;;;;;5005609;28;20071;-82
2023/03/09 12:18:36;;;;;;;6.25;3.53;;;6.70;99.90;;;;;;5029977;28;20029;-82
2023/03/09 12:21:05;;;;;;;5.72;3.53;;;6.70;99.90;;;;;;5014100;28;20045;-82
2023/03/09 12:23:39;;;;;;;6.57;3.67;;;6.70;99.90;;;;;;5030293;28;20745;-82
2023/03/09 12:26:29;;;;;;;6.43;3.88;;;6.50;99.90;;;;;;5009533;28;20044;-82
2023/03/09 12:29:00;;;;;;;7.00;3.70;;;6.30;99.90;;;;;;5034073;28;20073;-82
2023/03/09 12:31:33;;;;;;;8.05;4.57;;;6.30;99.90;;;;;;5033047;28;20045;-82
2023/03/09 12:33:58;;;;;;;4.80;3.30;;;6.10;99.90;;;;;;5033928;28;20099;-83
2023/03/09 12:36:31;;;;;;;5.93;3.50;;;6.10;99.90;;;;;;5017516;28;20029;-83
2023/03/09 12:39:22;;;;;;;5.60;3.70;;;6.00;99.90;;;;;;5017280;28;20018;-82
2023/03/09 12:42:28;;;;;;;5.55;3.42;;;6.00;99.90;;;;;;5012562;28;20037;-83
2023/03/09 12:45:02;;;;;;;4.57;3.20;;;5.90;99.90;;;;;;5032822;28;20136;-83
2023/03/09 12:47:31;;;;;;;6.20;3.83;;;5.80;99.90;;;;;;5015333;28;20146;-83
2023/03/09 12:49:57;;;;;;;8.57;3.92;;;6.10;99.90;;;;;;5033612;28;20073;-83
2023/03/09 12:52:36;;;;;;;8.48;3.80;;;5.80;99.90;;;;;;5017171;28;20038;-83
2023/03/09 12:55:17;;;;;;;7.97;4.38;;;5.90;99.90;;;;;;5017204;28;20426;-83
2023/03/09 12:57:44;;;;;;;7.22;4.22;;;6.00;99.90;;;;;;5030376;28;20049;-83